Time;durP1;ratioP1;P1;durP2;ratioP2;P2;SDS_P1;SDS_P2;PMS_P1;PMS_P2;Temp;Humidity;BMP_temperature;BMP_pressure;BME280_temperature;BME280_humidity;BME280_pressure;Samples;Min_cycle;Max_cycle;Signal;HPM_P1;HPM_P2
2023/02/07 00:00:32;;;;;;;;;;;;;;;-6.71;75.98;94559.84;5029286;28;19920;-51
2023/02/07 00:02:57;;;;;;;;;;;;;;;-6.71;76.30;94571.31;5029316;28;19920;-49
2023/02/07 00:05:22;;;;;;;;;;;;;;;-6.73;77.49;94573.66;5029497;28;19925;-50
2023/02/07 00:07:48;;;;;;;;;;;;;;;-6.67;76.19;94582.00;5029063;28;20375;-51
2023/02/07 00:10:13;;;;;;;;;;;;;;;-6.75;76.76;94572.53;5029129;28;19921;-52
2023/02/07 00:12:38;;;;;;;;;;;;;;;-6.60;75.96;94576.50;5028997;28;19917;-48
2023/02/07 00:15:04;;;;;;;;;;;;;;;-6.57;78.51;94589.88;5029044;28;19914;-51
2023/02/07 00:17:30;;;;;;;;;;;;;;;-6.45;77.63;94583.88;5028844;28;20015;-48
2023/02/07 00:19:55;;;;;;;;;;;;;;;-6.45;76.65;94585.81;5029220;28;20027;-47
2023/02/07 00:22:20;;;;;;;;;;;;;;;-6.48;76.41;94589.31;5029043;28;19916;-50
2023/02/07 00:24:46;;;;;;;;;;;;;;;-6.41;75.91;94592.63;5029327;28;20384;-51
2023/02/07 00:27:11;;;;;;;;;;;;;;;-6.28;75.24;94600.84;5028783;28;19924;-49
2023/02/07 00:29:36;;;;;;;;;;;;;;;-6.22;75.92;94599.97;5029029;28;20612;-50
2023/02/07 00:32:02;;;;;;;;;;;;;;;-6.22;75.48;94599.97;5039617;28;20376;-51
2023/02/07 00:34:27;;;;;;;;;;;;;;;-6.11;76.14;94593.63;5029716;28;19917;-51
2023/02/07 00:36:52;;;;;;;;;;;;;;;-6.22;78.91;94589.22;5028714;28;20000;-50
2023/02/07 00:39:17;;;;;;;;;;;;;;;-6.23;77.24;94603.03;5028547;28;20400;-49
2023/02/07 00:41:43;;;;;;;;;;;;;;;-6.23;78.16;94601.13;5028402;28;19956;-50
2023/02/07 00:44:08;;;;;;;;;;;;;;;-6.14;78.18;94602.50;5034414;28;19921;-49
2023/02/07 00:46:34;;;;;;;;;;;;;;;-6.18;77.17;94603.34;5028191;28;19913;-48
2023/02/07 00:48:59;;;;;;;;;;;;;;;-6.08;76.88;94614.28;5028345;28;19983;-49
2023/02/07 00:51:24;;;;;;;;;;;;;;;-6.03;76.64;94611.88;5028374;28;19921;-50
2023/02/07 00:53:52;;;;;;;;;;;;;;;-6.20;76.83;94611.06;5028178;28;19927;-50
2023/02/07 00:56:18;;;;;;;;;;;;;;;-6.21;77.70;94611.44;5028250;28;19927;-48
2023/02/07 00:58:43;;;;;;;;;;;;;;;-6.15;76.97;94617.13;5029832;28;19913;-48
2023/02/07 01:01:08;;;;;;;;;;;;;;;-6.19;77.15;94615.25;5048146;28;20045;-49
2023/02/07 01:03:34;;;;;;;;;;;;;;;-6.29;78.05;94610.84;5048071;28;19989;-48
2023/02/07 01:05:59;;;;;;;;;;;;;;;-6.05;79.17;94610.75;5047775;28;19925;-48
2023/02/07 01:08:24;;;;;;;;;;;;;;;-6.07;78.48;94607.72;5047666;28;19921;-48
2023/02/07 01:10:49;;;;;;;;;;;;;;;-6.36;77.19;94599.44;5047856;28;19913;-49
2023/02/07 01:13:15;;;;;;;;;;;;;;;-6.22;77.47;94599.97;5048038;28;19920;-48
2023/02/07 01:15:41;;;;;;;;;;;;;;;-6.06;77.59;94604.63;5048217;28;19924;-48
2023/02/07 01:18:07;;;;;;;;;;;;;;;-5.96;75.72;94614.44;5047558;28;19916;-48
2023/02/07 01:20:32;;;;;;;;;;;;;;;-5.94;75.69;94611.31;5048245;28;19966;-49
2023/02/07 01:22:58;;;;;;;;;;;;;;;-6.05;76.84;94600.78;5047913;28;19966;-48
2023/02/07 01:25:23;;;;;;;;;;;;;;;-6.04;77.13;94599.59;5047849;28;20316;-49
2023/02/07 01:27:48;;;;;;;;;;;;;;;-5.99;77.72;94601.81;5028585;28;19923;-49
2023/02/07 01:30:14;;;;;;;;;;;;;;;-5.97;78.04;94599.44;5028082;28;20324;-49
2023/02/07 01:32:39;;;;;;;;;;;;;;;-5.97;77.66;94598.69;5039242;28;20359;-49
2023/02/07 01:35:04;;;;;;;;;;;;;;;-6.13;78.23;94595.97;5028128;28;19953;-48
2023/02/07 01:37:30;;;;;;;;;;;;;;;-6.28;78.77;94596.22;5027677;28;20381;-48
2023/02/07 01:39:55;;;;;;;;;;;;;;;-6.27;79.36;94595.06;5037756;28;20680;-48
2023/02/07 01:42:21;;;;;;;;;;;;;;;-6.14;79.96;94594.44;5042053;28;20032;-49
2023/02/07 01:44:49;;;;;;;;;;;;;;;-6.01;80.21;94595.31;5027826;28;19917;-47
2023/02/07 01:47:18;;;;;;;;;;;;;;;-6.04;79.06;94598.84;5027315;28;19913;-49
2023/02/07 01:49:43;;;;;;;;;;;;;;;-6.08;78.08;94598.13;5026640;28;20320;-49
2023/02/07 01:52:10;;;;;;;;;;;;;;;-5.97;79.47;94590.63;5025856;28;19971;-49
2023/02/07 01:54:36;;;;;;;;;;;;;;;-5.92;78.93;94593.59;5026675;28;19975;-48
2023/02/07 01:57:02;;;;;;;;;;;;;;;-5.90;78.02;94587.78;5026175;28;19917;-49
2023/02/07 01:59:28;;;;;;;;;;;;;;;-5.81;77.35;94591.41;5035356;28;19921;-49
2023/02/07 02:01:53;;;;;;;;;;;;;;;-5.63;76.49;94591.03;5026019;28;19917;-49
2023/02/07 02:04:18;;;;;;;;;;;;;;;-5.71;76.19;94590.44;5026316;28;19917;-50
2023/02/07 02:06:44;;;;;;;;;;;;;;;-5.72;77.36;94572.03;5027337;28;19944;-48
2023/02/07 02:09:11;;;;;;;;;;;;;;;-5.76;76.95;94582.84;5026258;28;19971;-48
2023/02/07 02:11:54;;;;;;;;;;;;;;;-5.64;76.65;94576.06;5027221;28;20452;-48
2023/02/07 02:14:35;;;;;;;;;;;;;;;-5.55;75.88;94584.34;5027428;28;19913;-48
2023/02/07 02:17:06;;;;;;;;;;;;;;;-5.68;76.35;94588.84;5027533;28;19924;-49
2023/02/07 02:19:44;;;;;;;;;;;;;;;-5.85;77.60;94588.09;5027502;28;20467;-49
2023/02/07 02:22:14;;;;;;;;;;;;;;;-5.94;78.72;94589.81;5027363;28;20345;-49
2023/02/07 02:24:44;;;;;;;;;;;;;;;-5.88;78.82;94588.13;5026174;28;19920;-49
2023/02/07 02:27:10;;;;;;;;;;;;;;;-5.96;79.27;94592.16;5035595;28;19917;-48
2023/02/07 02:29:39;;;;;;;;;;;;;;;-6.03;80.00;94598.44;5026263;28;20426;-48
2023/02/07 02:32:23;;;;;;;;;;;;;;;-5.97;80.27;94598.69;5038443;28;19970;-49
2023/02/07 02:35:07;;;;;;;;;;;;;;;-5.90;79.13;94599.31;5027641;28;20375;-49
2023/02/07 02:37:45;;;;;;;;;;;;;;;-5.99;79.24;94611.78;5025964;28;20012;-48
2023/02/07 02:40:13;;;;;;;;;;;;;;;-6.06;79.74;94601.94;5030775;28;19921;-48
2023/02/07 02:42:40;;;;;;;;;;;;;;;-5.94;79.88;94597.88;5029161;28;20458;-48
2023/02/07 02:45:11;;;;;;;;;;;;;;;-5.76;78.48;94598.97;5029908;28;19920;-48
2023/02/07 02:47:36;;;;;;;;;;;;;;;-5.84;78.73;94608.41;5030752;28;20600;-48
2023/02/07 02:50:02;;;;;;;;;;;;;;;-5.90;78.85;94606.63;5030695;28;19921;-48
2023/02/07 02:52:30;;;;;;;;;;;;;;;-5.89;80.37;94600.81;5029030;28;19991;-48
2023/02/07 02:54:56;;;;;;;;;;;;;;;-5.81;80.30;94602.19;5030652;28;19917;-48
2023/02/07 02:57:21;;;;;;;;;;;;;;;-5.90;80.41;94606.63;5030389;28;19939;-49
2023/02/07 03:00:00;;;;;;;;;;;;;;;-5.73;79.22;94608.16;5030466;28;19917;-49
2023/02/07 03:02:29;;;;;;;;;;;;;;;-5.76;78.74;94609.00;5030542;28;19959;-48
2023/02/07 03:04:57;;;;;;;;;;;;;;;-5.74;78.16;94612.03;5030295;28;20003;-49
2023/02/07 03:07:41;;;;;;;;;;;;;;;-5.77;78.71;94610.16;5028766;28;19994;-48
2023/02/07 03:10:08;;;;;;;;;;;;;;;-5.73;80.20;94608.16;5030494;28;19921;-49
2023/02/07 03:12:37;;;;;;;;;;;;;;;-5.68;80.83;94613.03;5028874;28;19978;-48
2023/02/07 03:15:08;;;;;;;;;;;;;;;-5.66;80.27;94622.22;5028920;28;20404;-51
2023/02/07 03:17:52;;;;;;;;;;;;;;;-5.61;79.57;94619.03;5029226;28;19921;-49
2023/02/07 03:20:36;;;;;;;;;;;;;;;-5.61;80.92;94610.94;5030424;28;19921;-49
2023/02/07 03:23:01;;;;;;;;;;;;;;;-5.51;80.18;94598.47;5029778;28;19913;-49
2023/02/07 03:25:26;;;;;;;;;;;;;;;-5.66;79.35;94602.63;5030419;28;19917;-49
2023/02/07 03:27:52;;;;;;;;;;;;;;;-5.60;78.75;94600.97;5040694;28;20399;-49
2023/02/07 03:30:18;;;;;;;;;;;;;;;-5.57;78.48;94602.81;5028637;28;20008;-49
2023/02/07 03:32:44;;;;;;;;;;;;;;;-5.54;78.49;94610.81;5033600;28;19927;-50
2023/02/07 03:35:13;;;;;;;;;;;;;;;-5.61;78.45;94602.88;5028623;28;19917;-49
2023/02/07 03:37:43;;;;;;;;;;;;;;;-5.70;79.27;94604.63;5028842;28;20396;-49
2023/02/07 03:40:09;;;;;;;;;;;;;;;-5.67;79.08;94609.16;5029890;28;19920;-48
2023/02/07 03:42:36;;;;;;;;;;;;;;;-5.85;79.98;94609.59;5036549;28;20003;-49
2023/02/07 03:45:01;;;;;;;;;;;;;;;-5.84;80.74;94602.25;5048799;28;19948;-48
2023/02/07 03:47:26;;;;;;;;;;;;;;;-5.98;81.56;94611.41;5049954;28;19948;-49
2023/02/07 03:49:52;;;;;;;;;;;;;;;-5.97;80.96;94615.59;5049385;28;20626;-48
2023/02/07 03:52:17;;;;;;;;;;;;;;;-5.82;80.83;94608.72;5049239;28;20059;-49
2023/02/07 03:54:42;;;;;;;;;;;;;;;-5.76;81.23;94614.38;5049743;28;19916;-49
2023/02/07 03:57:08;;;;;;;;;;;;;;;-5.68;80.83;94619.19;5048095;28;19978;-49
2023/02/07 03:59:33;;;;;;;;;;;;;;;-5.63;79.64;94618.69;5040109;28;20327;-48
2023/02/07 04:01:59;;;;;;;;;;;;;;;-5.62;79.27;94612.13;5049214;28;19916;-48
2023/02/07 04:04:24;;;;;;;;;;;;;;;-5.70;79.72;94615.41;5049203;28;19913;-49
2023/02/07 04:06:49;;;;;;;;;;;;;;;-5.62;79.57;94614.06;5048920;28;19971;-48
2023/02/07 04:09:14;;;;;;;;;;;;;;;-5.66;78.72;94613.38;5049221;28;19932;-47
2023/02/07 04:11:40;;;;;;;;;;;;;;;-5.69;80.57;94603.44;5049060;28;19982;-48
2023/02/07 04:14:05;;;;;;;;;;;;;;;-5.63;80.25;94612.56;5049396;28;19943;-48
2023/02/07 04:16:30;;;;;;;;;;;;;;;-5.57;79.57;94616.28;5049099;28;19970;-49
2023/02/07 04:18:55;;;;;;;;;;;;;;;-5.67;78.61;94607.25;5049081;28;19917;-49
2023/02/07 04:21:21;;;;;;;;;;;;;;;-5.63;78.72;94615.25;5048547;28;20389;-49
2023/02/07 04:23:46;;;;;;;;;;;;;;;-5.56;78.09;94610.47;5048778;28;19932;-48
2023/02/07 04:26:11;;;;;;;;;;;;;;;-5.74;78.87;94607.38;5044018;28;20006;-48
2023/02/07 04:28:37;;;;;;;;;;;;;;;-5.73;79.32;94608.16;5037906;28;20328;-48
2023/02/07 04:31:02;;;;;;;;;;;;;;;-5.89;79.62;94613.53;5048537;28;19952;-48
2023/02/07 04:33:27;;;;;;;;;;;;;;;-5.80;79.76;94611.75;5037757;28;20306;-49
2023/02/07 04:35:59;;;;;;;;;;;;;;;-5.74;80.14;94622.78;5028865;28;20451;-49
2023/02/07 04:38:24;;;;;;;;;;;;;;;-5.71;79.99;94621.94;5028284;28;19917;-49
2023/02/07 04:40:50;;;;;;;;;;;;;;;-5.79;79.74;94621.34;5028843;28;19983;-49
2023/02/07 04:43:15;;;;;;;;;;;;;;;-5.76;81.20;94625.13;5041065;28;19916;-48
2023/02/07 04:45:40;;;;;;;;;;;;;;;-5.82;80.59;94626.78;5048486;28;20003;-48
2023/02/07 04:48:06;;;;;;;;;;;;;;;-5.86;81.02;94626.13;5048407;28;19913;-49
2023/02/07 04:50:31;;;;;;;;;;;;;;;-5.85;80.32;94628.41;5048309;28;20387;-49
2023/02/07 04:52:56;;;;;;;;;;;;;;;-5.90;81.80;94628.13;5048147;28;19966;-49
2023/02/07 04:55:21;;;;;;;;;;;;;;;-5.82;80.96;94624.84;5048371;28;19916;-50
2023/02/07 04:57:47;;;;;;;;;;;;;;;-5.84;81.43;94631.84;5045197;28;19975;-48
2023/02/07 05:00:12;;;;;;;;;;;;;;;-6.01;81.35;94627.56;5041956;28;20035;-48
2023/02/07 05:02:38;;;;;;;;;;;;;;;-6.06;82.16;94631.50;5047379;28;19916;-49
2023/02/07 05:05:03;;;;;;;;;;;;;;;-6.04;81.32;94637.22;5048332;28;19943;-52
2023/02/07 05:07:28;;;;;;;;;;;;;;;-5.94;80.98;94638.19;5047727;28;20419;-48
2023/02/07 05:09:54;;;;;;;;;;;;;;;-5.94;81.14;94641.66;5048130;28;19964;-50
2023/02/07 05:12:19;;;;;;;;;;;;;;;-6.08;81.06;94644.59;5048046;28;20399;-49
2023/02/07 05:14:44;;;;;;;;;;;;;;;-6.14;80.88;94640.88;5048052;28;19920;-48
2023/02/07 05:17:10;;;;;;;;;;;;;;;-6.20;80.78;94643.31;5047833;28;20403;-48
2023/02/07 05:19:36;;;;;;;;;;;;;;;-6.25;81.23;94651.84;5047765;28;19928;-50
2023/02/07 05:22:01;;;;;;;;;;;;;;;-6.36;82.02;94653.19;5047695;28;19920;-48
2023/02/07 05:24:26;;;;;;;;;;;;;;;-6.43;82.25;94651.38;5043009;28;19921;-49
2023/02/07 05:26:51;;;;;;;;;;;;;;;-6.17;81.12;94655.91;5027978;28;19944;-48
2023/02/07 05:29:17;;;;;;;;;;;;;;;-6.20;80.59;94664.03;5027871;28;20040;-49
2023/02/07 05:34:26;;;;;;;;;;;;;;;-6.21;80.60;94657.91;5028714;28;19928;-49
2023/02/07 05:36:51;;;;;;;;;;;;;;;-6.21;80.88;94665.19;5027793;28;19913;-49
2023/02/07 05:39:16;;;;;;;;;;;;;;;-6.36;81.22;94664.69;5027681;28;19921;-48
2023/02/07 05:41:41;;;;;;;;;;;;;;;-6.12;80.78;94670.03;5027722;28;20008;-49
2023/02/07 05:44:07;;;;;;;;;;;;;;;-6.17;80.62;94665.88;5047226;28;19924;-49
2023/02/07 05:46:32;;;;;;;;;;;;;;;-6.10;80.11;94659.63;5047584;28;19912;-48
2023/02/07 05:48:57;;;;;;;;;;;;;;;-6.31;80.72;94668.84;5047571;28;19921;-49
2023/02/07 05:51:24;;;;;;;;;;;;;;;-6.12;81.17;94670.78;5047736;28;19923;-49
2023/02/07 05:53:49;;;;;;;;;;;;;;;-6.11;79.88;94677.69;5046169;28;20492;-49
2023/02/07 05:56:14;;;;;;;;;;;;;;;-6.10;80.29;94679.19;5047358;28;19924;-48
2023/02/07 05:58:40;;;;;;;;;;;;;;;-5.98;80.73;94677.84;5038073;28;19913;-50
2023/02/07 06:01:05;;;;;;;;;;;;;;;-5.96;80.64;94678.19;5047314;28;20035;-48
2023/02/07 06:03:30;;;;;;;;;;;;;;;-5.83;79.59;94684.44;5047795;28;19970;-49
2023/02/07 06:05:56;;;;;;;;;;;;;;;-5.88;79.63;94687.63;5047288;28;19928;-49
2023/02/07 06:08:21;;;;;;;;;;;;;;;-5.77;78.90;94688.16;5047339;28;19981;-48
2023/02/07 06:10:47;;;;;;;;;;;;;;;-5.88;79.68;94684.94;5047503;28;20380;-48
2023/02/07 06:13:12;;;;;;;;;;;;;;;-5.83;79.11;94687.13;5047955;28;19917;-49
2023/02/07 06:15:37;;;;;;;;;;;;;;;-5.77;79.01;94688.91;5051443;28;20714;-49
2023/02/07 06:18:03;;;;;;;;;;;;;;;-5.76;78.50;94687.00;5051273;28;19981;-50
2023/02/07 06:20:28;;;;;;;;;;;;;;;-5.61;78.55;94694.34;5046841;28;19921;-49
2023/02/07 06:22:53;;;;;;;;;;;;;;;-5.60;78.78;94695.09;5031379;28;19917;-50
2023/02/07 06:25:19;;;;;;;;;;;;;;;-5.48;78.08;94687.16;5031455;28;20567;-49
2023/02/07 06:27:44;;;;;;;;;;;;;;;-5.32;78.06;94691.84;5030900;28;20397;-52
2023/02/07 06:30:10;;;;;;;;;;;;;;;-5.19;77.30;94695.41;5030574;28;19917;-52
2023/02/07 06:32:35;;;;;;;;;;;;;;;-5.18;77.09;94696.94;5030767;28;19930;-49
2023/02/07 06:35:00;;;;;;;;;;;;;;;-5.04;77.22;94693.16;5030709;28;20682;-52
2023/02/07 06:37:25;;;;;;;;;;;;;;;-4.84;76.21;94699.25;5031021;28;19924;-52
2023/02/07 06:39:51;;;;;;;;;;;;;;;-4.71;75.05;94697.41;5030911;28;20399;-50
2023/02/07 06:42:16;;;;;;;;;;;;;;;-4.64;74.13;94697.25;5035297;28;19916;-48
2023/02/07 06:44:41;;;;;;;;;;;;;;;-4.50;73.39;94696.88;5050522;28;19919;-48
2023/02/07 06:47:06;;;;;;;;;;;;;;;-4.68;74.17;94701.97;5050504;28;19924;-49
2023/02/07 06:49:32;;;;;;;;;;;;;;;-4.66;73.73;94699.59;5050756;28;19959;-48
2023/02/07 06:51:57;;;;;;;;;;;;;;;-4.62;73.80;94700.28;5050508;28;19916;-48
2023/02/07 06:54:22;;;;;;;;;;;;;;;-4.42;73.09;94694.78;5050588;28;19916;-48
2023/02/07 06:56:47;;;;;;;;;;;;;;;-4.31;73.82;94698.00;5050649;28;19916;-49
2023/02/07 06:59:13;;;;;;;;;;;;;;;-4.20;73.42;94699.22;5041060;28;19916;-49
2023/02/07 07:01:38;;;;;;;;;;;;;;;-4.16;72.57;94691.06;5050501;28;19917;-49
2023/02/07 07:04:03;;;;;;;;;;;;;;;-3.97;71.51;94695.56;5050435;28;19916;-49
2023/02/07 07:06:29;;;;;;;;;;;;;;;-3.68;70.95;94701.72;5050331;28;20046;-49
2023/02/07 07:08:54;;;;;;;;;;;;;;;-3.45;69.47;94698.78;5050028;28;20389;-51
2023/02/07 07:11:19;;;;;;;;;;;;;;;-3.21;68.04;94699.25;5049973;28;19920;-50
2023/02/07 07:13:45;;;;;;;;;;;;;;;-3.07;67.04;94705.00;5050364;28;19979;-49
2023/02/07 07:16:10;;;;;;;;;;;;;;;-2.52;65.46;94708.34;5050267;28;20469;-51
2023/02/07 07:18:37;;;;;;;;;;;;;;;-1.78;63.75;94708.63;5030231;28;19927;-49
2023/02/07 07:21:02;;;;;;;;;;;;;;;-1.49;61.58;94701.00;5030216;28;19920;-49
2023/02/07 07:23:27;;;;;;;;;;;;;;;-1.75;61.27;94705.78;5028711;28;19917;-51
2023/02/07 07:25:53;;;;;;;;;;;;;;;-1.47;61.30;94700.59;5031373;28;19917;-50
2023/02/07 07:28:18;;;;;;;;;;;;;;;-2.00;61.93;94700.47;5039677;28;19917;-49
2023/02/07 07:30:43;;;;;;;;;;;;;;;-2.24;63.27;94709.38;5029783;28;19943;-50
2023/02/07 07:33:08;;;;;;;;;;;;;;;-2.33;63.90;94702.72;5029966;28;20496;-50
2023/02/07 07:35:34;;;;;;;;;;;;;;;-2.32;64.67;94709.63;5029882;28;20011;-48
2023/02/07 07:37:59;;;;;;;;;;;;;;;-2.39;63.92;94701.75;5029801;28;20595;-49
2023/02/07 07:40:24;;;;;;;;;;;;;;;-2.34;64.23;94703.16;5029948;28;20027;-49
2023/02/07 07:42:50;;;;;;;;;;;;;;;-2.21;64.42;94695.00;5038843;28;20381;-50
2023/02/07 07:45:15;;;;;;;;;;;;;;;-1.34;62.52;94696.59;5049328;28;20450;-48
2023/02/07 07:47:40;;;;;;;;;;;;;;;-1.43;61.41;94703.94;5049621;28;19948;-49
2023/02/07 07:50:06;;;;;;;;;;;;;;;-1.52;61.08;94710.03;5049162;28;19928;-49
2023/02/07 07:52:31;;;;;;;;;;;;;;;-1.02;60.49;94711.72;5049216;28;19920;-49
2023/02/07 07:54:57;;;;;;;;;;;;;;;-0.41;59.89;94708.97;5049577;28;19917;-49
2023/02/07 07:57:26;;;;;;;;;;;;;;;-0.45;58.48;94710.28;5049351;28;20304;-50
2023/02/07 07:59:52;;;;;;;;;;;;;;;0.61;56.39;94701.25;5040319;28;19917;-48
2023/02/07 08:02:17;;;;;;;;;;;;;;;0.93;52.91;94711.50;5049287;28;20555;-49
2023/02/07 08:04:42;;;;;;;;;;;;;;;1.08;54.96;94708.91;5049131;28;19916;-48
2023/02/07 08:07:08;;;;;;;;;;;;;;;0.53;54.61;94705.50;5048947;28;19932;-49
2023/02/07 08:09:33;;;;;;;;;;;;;;;0.98;53.94;94705.44;5048762;28;19921;-50
2023/02/07 08:11:58;;;;;;;;;;;;;;;0.92;53.74;94703.78;5048951;28;19924;-50
2023/02/07 08:14:23;;;;;;;;;;;;;;;0.28;55.07;94703.81;5048964;28;20065;-49
2023/02/07 08:16:49;;;;;;;;;;;;;;;-0.10;54.56;94708.91;5048963;28;19928;-48
2023/02/07 08:19:14;;;;;;;;;;;;;;;-0.45;54.82;94713.00;5048742;28;19916;-48
2023/02/07 08:21:39;;;;;;;;;;;;;;;-0.31;55.40;94701.63;5048989;28;19923;-50
2023/02/07 08:24:04;;;;;;;;;;;;;;;-0.81;55.76;94702.78;5048607;28;19921;-49
2023/02/07 08:26:30;;;;;;;;;;;;;;;-0.70;56.49;94702.38;5041382;28;19999;-48
2023/02/07 08:28:55;;;;;;;;;;;;;;;-0.99;56.83;94705.41;5043958;28;20334;-50
2023/02/07 08:31:20;;;;;;;;;;;;;;;-1.15;58.12;94698.22;5048608;28;19923;-50
2023/02/07 08:33:46;;;;;;;;;;;;;;;-0.86;58.74;94697.94;5034817;28;20404;-48
2023/02/07 08:36:11;;;;;;;;;;;;;;;-0.76;57.74;94702.22;5028579;28;20040;-49
2023/02/07 08:38:37;;;;;;;;;;;;;;;-0.12;55.64;94705.88;5028548;28;19913;-49
2023/02/07 08:41:02;;;;;;;;;;;;;;;0.97;53.61;94706.66;5028589;28;19913;-50
2023/02/07 08:43:28;;;;;;;;;;;;;;;0.21;52.15;94700.66;5043223;28;20401;-50
2023/02/07 08:45:53;;;;;;;;;;;;;;;0.12;53.95;94697.94;5048303;28;19923;-48
2023/02/07 08:48:18;;;;;;;;;;;;;;;0.23;55.87;94695.53;5048315;28;19924;-49
2023/02/07 08:50:44;;;;;;;;;;;;;;;-0.02;54.53;94700.00;5048851;28;20366;-48
2023/02/07 08:53:09;;;;;;;;;;;;;;;-0.22;54.47;94705.09;5048434;28;20731;-49
2023/02/07 08:55:34;;;;;;;;;;;;;;;-0.48;55.79;94716.63;5048389;28;20332;-50
2023/02/07 08:58:00;;;;;;;;;;;;;;;-0.71;55.52;94709.75;5043969;28;19921;-48
2023/02/07 09:00:25;;;;;;;;;;;;;;;-0.85;57.18;94713.78;5043947;28;20073;-49
2023/02/07 09:02:50;;;;;;;;;;;;;;;-1.07;57.02;94725.84;5048117;28;19913;-48
2023/02/07 09:05:16;;;;;;;;;;;;;;;-1.20;57.36;94720.50;5048651;28;19916;-49
2023/02/07 09:07:41;;;;;;;;;;;;;;;-1.34;58.18;94712.84;5048289;28;20413;-49
2023/02/07 09:10:07;;;;;;;;;;;;;;;-1.60;57.09;94714.94;5036451;28;19994;-49
2023/02/07 09:12:33;;;;;;;;;;;;;;;-1.63;57.38;94710.41;5028483;28;19978;-49
2023/02/07 09:14:58;;;;;;;;;;;;;;;-1.72;57.57;94715.00;5028302;28;20458;-49
2023/02/07 09:17:24;;;;;;;;;;;;;;;-1.67;59.76;94706.31;5027906;28;19917;-49
2023/02/07 09:19:49;;;;;;;;;;;;;;;-1.63;57.95;94715.06;5028229;28;19920;-48
2023/02/07 09:22:14;;;;;;;;;;;;;;;-1.72;57.41;94726.56;5027732;28;19917;-48
2023/02/07 09:24:40;;;;;;;;;;;;;;;-1.65;60.04;94712.03;5028196;28;19917;-49
2023/02/07 09:27:05;;;;;;;;;;;;;;;-1.62;58.27;94714.63;5027794;28;19975;-49
2023/02/07 09:29:30;;;;;;;;;;;;;;;-1.41;57.95;94712.38;5027625;28;20484;-50
2023/02/07 09:31:55;;;;;;;;;;;;;;;-0.99;57.15;94710.81;5038112;28;19923;-49
2023/02/07 09:34:21;;;;;;;;;;;;;;;-1.20;56.41;94704.22;5029365;28;20298;-49
2023/02/07 09:36:48;;;;;;;;;;;;;;;-1.08;57.20;94713.47;5027709;28;19913;-48
2023/02/07 09:39:14;;;;;;;;;;;;;;;-0.91;57.05;94706.66;5027957;28;19917;-50
2023/02/07 09:41:39;;;;;;;;;;;;;;;-1.16;56.02;94718.41;5027724;28;19943;-48
2023/02/07 09:44:30;;;;;;;;;;;;;;;-1.68;56.85;94716.38;5027479;28;19937;-49
2023/02/07 09:47:01;;;;;;;;;;;;;;;-1.15;56.64;94713.75;5025381;28;19976;-49
2023/02/07 09:49:28;;;;;;;;;;;;;;;-1.13;56.97;94712.13;5028717;28;19917;-49
2023/02/07 09:51:55;;;;;;;;;;;;;;;-0.93;54.89;94712.50;5030765;28;20372;-49
2023/02/07 09:54:24;;;;;;;;;;;;;;;-0.94;54.87;94702.13;5031719;28;19917;-50
2023/02/07 09:56:50;;;;;;;;;;;;;;;-0.45;55.19;94704.88;5030434;28;20352;-50
2023/02/07 09:59:30;;;;;;;;;;;;;;;0.11;53.64;94704.56;5042321;28;19972;-48
2023/02/07 10:01:57;;;;;;;;;;;;;;;0.02;54.51;94702.59;5031700;28;19987;-49
2023/02/07 10:04:28;;;;;;;;;;;;;;;0.94;51.21;94691.25;5031383;28;19923;-50
2023/02/07 10:06:55;;;;;;;;;;;;;;;1.10;49.85;94687.44;5030216;28;20302;-49
2023/02/07 10:09:22;;;;;;;;;;;;;;;1.72;49.66;94684.91;5031405;28;19921;-49
2023/02/07 10:12:03;;;;;;;;;;;;;;;1.85;47.50;94685.47;5029963;28;19913;-49
2023/02/07 10:14:29;;;;;;;;;;;;;;;1.35;46.12;94670.72;5030327;28;19917;-49
2023/02/07 10:17:06;;;;;;;;;;;;;;;1.01;46.14;94666.47;5031419;28;19979;-50
2023/02/07 10:19:45;;;;;;;;;;;;;;;1.20;47.44;94659.75;5030412;28;19917;-49
2023/02/07 10:22:24;;;;;;;;;;;;;;;0.80;49.41;94655.78;5029711;28;19921;-49
2023/02/07 10:24:53;;;;;;;;;;;;;;;0.67;50.41;94656.69;5031237;28;19913;-49
2023/02/07 10:27:22;;;;;;;;;;;;;;;1.33;47.66;94652.16;5043379;28;20066;-48
2023/02/07 10:29:48;;;;;;;;;;;;;;;1.12;47.00;94655.84;5029570;28;19917;-50
2023/02/07 10:32:19;;;;;;;;;;;;;;;1.07;47.77;94651.03;5038706;28;19991;-49
2023/02/07 10:34:46;;;;;;;;;;;;;;;1.04;46.13;94662.81;5030070;28;19917;-49
2023/02/07 10:37:38;;;;;;;;;;;;;;;0.84;46.61;94661.81;5030910;28;20316;-50
2023/02/07 10:40:12;;;;;;;;;;;;;;;0.55;48.09;94652.19;5030081;28;20530;-50
2023/02/07 10:42:37;;;;;;;;;;;;;;;0.40;48.93;94654.03;5038409;28;19917;-49
2023/02/07 10:45:03;;;;;;;;;;;;;;;0.49;50.11;94653.25;5049616;28;20528;-50
2023/02/07 10:47:28;;;;;;;;;;;;;;;0.21;49.79;94657.19;5051136;28;19932;-49
2023/02/07 10:49:54;;;;;;;;;;;;;;;0.48;50.22;94655.22;5049305;28;19923;-49
2023/02/07 10:52:43;;;;;;;;;;;;;;;0.52;50.48;94652.38;5049360;28;20435;-49
2023/02/07 10:55:09;;;;;;;;;;;;;;;0.16;51.39;94655.84;5042803;28;19999;-49
2023/02/07 10:57:34;;;;;;;;;;;;;;;-0.03;52.23;94651.59;5048816;28;20089;-49
2023/02/07 11:00:18;;;;;;;;;;;;;;;0.13;51.81;94643.16;5038573;28;19917;-50
2023/02/07 11:02:48;;;;;;;;;;;;;;;0.54;50.34;94641.78;5042786;28;20003;-50
2023/02/07 11:05:25;;;;;;;;;;;;;;;0.26;50.49;94634.88;5050182;28;19917;-50
2023/02/07 11:08:13;;;;;;;;;;;;;;;0.44;50.19;94638.31;5050534;28;19920;-49
2023/02/07 11:10:39;;;;;;;;;;;;;;;-0.30;51.60;94635.28;5041543;28;19917;-51
2023/02/07 11:13:10;;;;;;;;;;;;;;;-0.24;51.69;94639.66;5050488;28;19982;-51
2023/02/07 11:15:37;;;;;;;;;;;;;;;-0.45;51.65;94640.53;5048819;28;19917;-50
2023/02/07 11:18:02;;;;;;;;;;;;;;;-0.71;52.62;94633.81;5049728;28;19913;-50
2023/02/07 11:20:33;;;;;;;;;;;;;;;-0.35;50.93;94630.47;5050254;28;19965;-51
2023/02/07 11:22:59;;;;;;;;;;;;;;;0.10;48.35;94637.88;5050186;28;20329;-52
2023/02/07 11:25:28;;;;;;;;;;;;;;;0.76;47.99;94640.38;5048422;28;19970;-51
2023/02/07 11:27:53;;;;;;;;;;;;;;;1.07;46.74;94629.28;5037853;28;19912;-49
2023/02/07 11:30:20;;;;;;;;;;;;;;;1.91;46.37;94629.13;5049637;28;19921;-49
2023/02/07 11:33:06;;;;;;;;;;;;;;;2.89;42.64;94632.25;5044176;28;20344;-50
2023/02/07 11:35:31;;;;;;;;;;;;;;;4.43;39.84;94616.53;5029811;28;20389;-48
2023/02/07 11:38:04;;;;;;;;;;;;;;;4.50;38.93;94623.56;5029534;28;19913;-50
2023/02/07 11:40:51;;;;;;;;;;;;;;;4.45;37.32;94607.84;5029649;28;19966;-49
2023/02/07 11:43:17;;;;;;;;;;;;;;;5.74;36.93;94605.72;5030147;28;20293;-49
2023/02/07 11:45:44;;;;;;;;;;;;;;;5.57;34.38;94597.38;5029760;28;20317;-50
2023/02/07 11:48:14;;;;;;;;;;;;;;;4.39;35.07;94607.81;5028337;28;19917;-49
2023/02/07 11:50:47;;;;;;;;;;;;;;;4.95;35.52;94594.66;5028607;28;20397;-49
2023/02/07 11:53:47;;;;;;;;;;;;;;;5.64;35.36;94596.91;5029538;28;19917;-51
2023/02/07 11:56:32;;;;;;;;;;;;;;;3.58;37.23;94604.28;4987436;28;20438;-50
2023/02/07 11:58:57;;;;;;;;;;;;;;;2.43;40.19;94597.69;5029415;28;19921;-49
2023/02/07 12:01:27;;;;;;;;;;;;;;;2.25;40.92;94599.38;5049330;28;20071;-49
2023/02/07 12:03:59;;;;;;;;;;;;;;;3.79;38.56;94589.41;5049242;28;19927;-51
2023/02/07 12:06:28;;;;;;;;;;;;;;;3.98;38.02;94591.91;5047692;28;19956;-50
2023/02/07 12:08:53;;;;;;;;;;;;;;;2.40;40.28;94599.41;5048794;28;19923;-50
2023/02/07 12:11:20;;;;;;;;;;;;;;;2.52;41.41;94600.34;5049041;28;19913;-50
2023/02/07 12:13:52;;;;;;;;;;;;;;;3.51;37.07;94596.50;5047993;28;19917;-49
2023/02/07 12:16:19;;;;;;;;;;;;;;;3.98;36.98;94586.44;5048689;28;19912;-50
2023/02/07 12:19:00;;;;;;;;;;;;;;;4.21;37.46;94588.94;5049408;28;19920;-50
2023/02/07 12:21:26;;;;;;;;;;;;;;;5.62;35.91;94585.72;5047296;28;19927;-49
2023/02/07 12:23:53;;;;;;;;;;;;;;;5.47;34.13;94582.38;5048972;28;19935;-50
2023/02/07 12:26:37;;;;;;;;;;;;;;;4.81;36.97;94585.31;5044380;28;19924;-49
2023/02/07 12:29:08;;;;;;;;;;;;;;;4.45;36.56;94578.53;5028756;28;19927;-50
2023/02/07 12:31:41;;;;;;;;;;;;;;;3.99;36.53;94583.22;5036070;28;19921;-49
2023/02/07 12:34:13;;;;;;;;;;;;;;;3.43;37.21;94583.72;5043608;28;19927;-50
2023/02/07 12:36:40;;;;;;;;;;;;;;;3.70;36.84;94580.63;5029003;28;20300;-49
2023/02/07 12:39:08;;;;;;;;;;;;;;;4.06;35.57;94584.78;5027802;28;19917;-50
2023/02/07 12:41:47;;;;;;;;;;;;;;;3.65;33.97;94584.03;5027382;28;19944;-50
2023/02/07 12:44:19;;;;;;;;;;;;;;;2.69;36.72;94582.31;5027382;28;19919;-49
2023/02/07 12:46:47;;;;;;;;;;;;;;;3.21;36.72;94583.38;5028630;28;20300;-49
2023/02/07 12:49:19;;;;;;;;;;;;;;;3.45;39.02;94583.97;5028187;28;20043;-50
2023/02/07 12:52:03;;;;;;;;;;;;;;;3.07;38.49;94593.13;5027753;28;20320;-49
2023/02/07 12:54:34;;;;;;;;;;;;;;;2.01;41.58;94595.94;5028182;28;20514;-50